Henrys Chapel, Texas
Current Conditions -  °F | °C
As of 4:15 PM on Wednesday 28 Jan 2015 (Local Time) from KJSO Reporting Station
Clear Clear  
Wind Chill: 76°   Ceiling: Unl
Heat Index: 76°   Visibility: 10mi
Dew Point: 40°   Wind: 0mph
Humidity: 27%   Direction: NA
Pressure: 30.08"   Gusts: NA
Location:  32.0774°N, 95.1103°W
Report Text: KJSO 282215Z AUTO 00000KT 10SM CLR 24/04 A3008 RMK AO2 T02440043
Loading
Personal Weather Stations






























Interactive Weather Map New forecast layout! Learn more

10-Day Weather Forecast

Advertisements
Track Severe Weather on mobile